sensor_id;sensor_type;location;lat;lon;timestamp;P1;durP1;ratioP1;P2;durP2;ratioP2
43457;SDS011;29046;54.184;18.680;2023-06-14T00:00:08;5.13;;;2.65;;
43457;SDS011;29046;54.184;18.680;2023-06-14T00:02:57;8.88;;;2.92;;
43457;SDS011;29046;54.184;18.680;2023-06-14T00:05:28;8.57;;;2.92;;
43457;SDS011;29046;54.184;18.680;2023-06-14T00:07:57;8.02;;;3.05;;
43457;SDS011;29046;54.184;18.680;2023-06-14T00:10:27;5.25;;;3.13;;
43457;SDS011;29046;54.184;18.680;2023-06-14T00:12:58;14.60;;;3.63;;
43457;SDS011;29046;54.184;18.680;2023-06-14T00:15:28;10.25;;;3.13;;
43457;SDS011;29046;54.184;18.680;2023-06-14T00:17:58;8.75;;;3.53;;
43457;SDS011;29046;54.184;18.680;2023-06-14T00:20:28;5.32;;;3.13;;
43457;SDS011;29046;54.184;18.680;2023-06-14T00:23:02;6.55;;;3.00;;
43457;SDS011;29046;54.184;18.680;2023-06-14T00:25:30;4.88;;;2.83;;
43457;SDS011;29046;54.184;18.680;2023-06-14T00:27:59;10.52;;;3.08;;
43457;SDS011;29046;54.184;18.680;2023-06-14T00:30:27;9.68;;;2.90;;
43457;SDS011;29046;54.184;18.680;2023-06-14T00:32:58;7.97;;;3.00;;
43457;SDS011;29046;54.184;18.680;2023-06-14T00:35:27;12.55;;;2.90;;
43457;SDS011;29046;54.184;18.680;2023-06-14T00:37:55;7.10;;;3.35;;
43457;SDS011;29046;54.184;18.680;2023-06-14T00:40:24;8.20;;;3.08;;
43457;SDS011;29046;54.184;18.680;2023-06-14T00:42:52;6.88;;;3.30;;
43457;SDS011;29046;54.184;18.680;2023-06-14T00:45:21;11.95;;;3.58;;
43457;SDS011;29046;54.184;18.680;2023-06-14T00:47:50;7.47;;;3.13;;
43457;SDS011;29046;54.184;18.680;2023-06-14T00:50:23;5.25;;;2.97;;
43457;SDS011;29046;54.184;18.680;2023-06-14T00:52:51;7.57;;;3.40;;
43457;SDS011;29046;54.184;18.680;2023-06-14T00:55:20;8.00;;;3.17;;
43457;SDS011;29046;54.184;18.680;2023-06-14T00:57:49;6.15;;;2.70;;
43457;SDS011;29046;54.184;18.680;2023-06-14T01:00:18;9.43;;;3.13;;
43457;SDS011;29046;54.184;18.680;2023-06-14T01:02:46;7.60;;;3.15;;
43457;SDS011;29046;54.184;18.680;2023-06-14T01:05:17;6.15;;;2.90;;
43457;SDS011;29046;54.184;18.680;2023-06-14T01:16:01;7.30;;;3.67;;
43457;SDS011;29046;54.184;18.680;2023-06-14T01:18:31;11.52;;;3.88;;
43457;SDS011;29046;54.184;18.680;2023-06-14T01:20:59;12.15;;;3.65;;
43457;SDS011;29046;54.184;18.680;2023-06-14T01:23:32;5.68;;;3.03;;
43457;SDS011;29046;54.184;18.680;2023-06-14T01:26:01;6.70;;;3.22;;
43457;SDS011;29046;54.184;18.680;2023-06-14T01:28:33;8.15;;;3.38;;
43457;SDS011;29046;54.184;18.680;2023-06-14T01:31:02;4.88;;;3.13;;
43457;SDS011;29046;54.184;18.680;2023-06-14T01:33:32;8.77;;;3.33;;
43457;SDS011;29046;54.184;18.680;2023-06-14T01:36:02;8.13;;;3.20;;
43457;SDS011;29046;54.184;18.680;2023-06-14T01:38:32;6.07;;;3.25;;
43457;SDS011;29046;54.184;18.680;2023-06-14T01:41:01;10.50;;;3.15;;
43457;SDS011;29046;54.184;18.680;2023-06-14T01:43:30;7.03;;;3.30;;
43457;SDS011;29046;54.184;18.680;2023-06-14T01:46:00;7.47;;;3.25;;
43457;SDS011;29046;54.184;18.680;2023-06-14T01:48:29;10.73;;;3.40;;
43457;SDS011;29046;54.184;18.680;2023-06-14T01:50:58;5.05;;;2.95;;
43457;SDS011;29046;54.184;18.680;2023-06-14T01:53:26;6.30;;;3.20;;
43457;SDS011;29046;54.184;18.680;2023-06-14T01:55:55;6.10;;;3.65;;
43457;SDS011;29046;54.184;18.680;2023-06-14T01:58:24;7.25;;;2.72;;
43457;SDS011;29046;54.184;18.680;2023-06-14T02:00:53;6.32;;;2.97;;
43457;SDS011;29046;54.184;18.680;2023-06-14T02:03:28;4.72;;;3.13;;
43457;SDS011;29046;54.184;18.680;2023-06-14T02:05:57;8.85;;;3.13;;
43457;SDS011;29046;54.184;18.680;2023-06-14T02:08:26;8.70;;;3.08;;
43457;SDS011;29046;54.184;18.680;2023-06-14T02:10:56;13.15;;;4.20;;
43457;SDS011;29046;54.184;18.680;2023-06-14T02:13:24;4.88;;;2.53;;
43457;SDS011;29046;54.184;18.680;2023-06-14T02:15:54;4.82;;;3.00;;
43457;SDS011;29046;54.184;18.680;2023-06-14T02:18:23;5.53;;;3.00;;
43457;SDS011;29046;54.184;18.680;2023-06-14T02:20:52;6.15;;;3.08;;
43457;SDS011;29046;54.184;18.680;2023-06-14T02:23:20;4.82;;;2.95;;
43457;SDS011;29046;54.184;18.680;2023-06-14T02:25:49;6.80;;;3.05;;
43457;SDS011;29046;54.184;18.680;2023-06-14T02:28:19;5.90;;;3.20;;
43457;SDS011;29046;54.184;18.680;2023-06-14T02:30:47;7.38;;;3.33;;
43457;SDS011;29046;54.184;18.680;2023-06-14T02:33:15;11.27;;;2.83;;
43457;SDS011;29046;54.184;18.680;2023-06-14T02:35:44;12.18;;;3.67;;
43457;SDS011;29046;54.184;18.680;2023-06-14T02:38:13;6.65;;;3.35;;
43457;SDS011;29046;54.184;18.680;2023-06-14T02:40:42;15.18;;;3.08;;
43457;SDS011;29046;54.184;18.680;2023-06-14T02:43:11;5.55;;;2.63;;
43457;SDS011;29046;54.184;18.680;2023-06-14T02:45:40;23.83;;;3.95;;
43457;SDS011;29046;54.184;18.680;2023-06-14T02:48:08;12.40;;;3.20;;
43457;SDS011;29046;54.184;18.680;2023-06-14T02:50:39;5.72;;;3.00;;
43457;SDS011;29046;54.184;18.680;2023-06-14T02:53:09;6.85;;;2.90;;
43457;SDS011;29046;54.184;18.680;2023-06-14T02:55:40;7.38;;;3.33;;
43457;SDS011;29046;54.184;18.680;2023-06-14T02:58:09;6.15;;;3.38;;
43457;SDS011;29046;54.184;18.680;2023-06-14T03:00:38;7.88;;;3.30;;
43457;SDS011;29046;54.184;18.680;2023-06-14T03:03:08;6.00;;;3.25;;
43457;SDS011;29046;54.184;18.680;2023-06-14T03:05:44;10.00;;;3.50;;
43457;SDS011;29046;54.184;18.680;2023-06-14T03:08:14;7.53;;;3.57;;
43457;SDS011;29046;54.184;18.680;2023-06-14T03:10:47;5.97;;;3.22;;
43457;SDS011;29046;54.184;18.680;2023-06-14T03:13:15;6.38;;;3.00;;
43457;SDS011;29046;54.184;18.680;2023-06-14T03:15:44;6.40;;;3.20;;
43457;SDS011;29046;54.184;18.680;2023-06-14T03:18:13;8.43;;;3.45;;
43457;SDS011;29046;54.184;18.680;2023-06-14T03:20:43;10.25;;;3.42;;
43457;SDS011;29046;54.184;18.680;2023-06-14T03:23:12;5.38;;;2.97;;
43457;SDS011;29046;54.184;18.680;2023-06-14T03:25:40;4.43;;;2.90;;
43457;SDS011;29046;54.184;18.680;2023-06-14T03:28:09;6.03;;;3.13;;
43457;SDS011;29046;54.184;18.680;2023-06-14T03:30:38;5.65;;;3.05;;
43457;SDS011;29046;54.184;18.680;2023-06-14T03:33:07;4.63;;;3.15;;
43457;SDS011;29046;54.184;18.680;2023-06-14T03:35:37;7.25;;;3.70;;
43457;SDS011;29046;54.184;18.680;2023-06-14T03:38:07;6.30;;;3.58;;
43457;SDS011;29046;54.184;18.680;2023-06-14T03:40:37;10.02;;;3.80;;
43457;SDS011;29046;54.184;18.680;2023-06-14T03:43:05;9.60;;;3.70;;
43457;SDS011;29046;54.184;18.680;2023-06-14T03:45:35;6.15;;;3.33;;
43457;SDS011;29046;54.184;18.680;2023-06-14T03:48:03;4.32;;;2.65;;
43457;SDS011;29046;54.184;18.680;2023-06-14T03:50:34;9.20;;;3.55;;
43457;SDS011;29046;54.184;18.680;2023-06-14T03:53:05;8.48;;;3.08;;
43457;SDS011;29046;54.184;18.680;2023-06-14T03:55:34;7.03;;;2.92;;
43457;SDS011;29046;54.184;18.680;2023-06-14T03:58:23;11.48;;;4.10;;
43457;SDS011;29046;54.184;18.680;2023-06-14T04:00:52;5.40;;;3.58;;
43457;SDS011;29046;54.184;18.680;2023-06-14T04:03:20;9.70;;;4.03;;
43457;SDS011;29046;54.184;18.680;2023-06-14T04:05:57;9.65;;;3.30;;
43457;SDS011;29046;54.184;18.680;2023-06-14T04:08:27;6.53;;;3.63;;
43457;SDS011;29046;54.184;18.680;2023-06-14T04:10:56;7.78;;;3.40;;
43457;SDS011;29046;54.184;18.680;2023-06-14T04:13:24;7.63;;;3.90;;
43457;SDS011;29046;54.184;18.680;2023-06-14T04:15:53;9.27;;;4.00;;
43457;SDS011;29046;54.184;18.680;2023-06-14T04:18:24;9.52;;;3.80;;
43457;SDS011;29046;54.184;18.680;2023-06-14T04:20:54;11.02;;;4.07;;
43457;SDS011;29046;54.184;18.680;2023-06-14T04:23:23;10.18;;;4.00;;
43457;SDS011;29046;54.184;18.680;2023-06-14T04:25:51;10.93;;;4.50;;
43457;SDS011;29046;54.184;18.680;2023-06-14T04:28:21;11.95;;;3.65;;
43457;SDS011;29046;54.184;18.680;2023-06-14T04:30:55;7.85;;;4.05;;
43457;SDS011;29046;54.184;18.680;2023-06-14T04:33:23;9.93;;;4.63;;
43457;SDS011;29046;54.184;18.680;2023-06-14T04:35:53;12.38;;;3.60;;
43457;SDS011;29046;54.184;18.680;2023-06-14T04:38:24;8.63;;;3.90;;
43457;SDS011;29046;54.184;18.680;2023-06-14T04:40:54;8.48;;;4.60;;
43457;SDS011;29046;54.184;18.680;2023-06-14T04:43:24;11.00;;;4.70;;
43457;SDS011;29046;54.184;18.680;2023-06-14T04:45:56;7.45;;;3.80;;
43457;SDS011;29046;54.184;18.680;2023-06-14T04:48:25;14.23;;;4.57;;
43457;SDS011;29046;54.184;18.680;2023-06-14T04:50:53;7.95;;;3.88;;
43457;SDS011;29046;54.184;18.680;2023-06-14T04:53:21;7.78;;;3.97;;
43457;SDS011;29046;54.184;18.680;2023-06-14T04:55:50;12.50;;;3.47;;
43457;SDS011;29046;54.184;18.680;2023-06-14T04:58:21;10.68;;;4.43;;
43457;SDS011;29046;54.184;18.680;2023-06-14T05:00:50;9.10;;;3.97;;
43457;SDS011;29046;54.184;18.680;2023-06-14T05:03:18;9.45;;;3.38;;
43457;SDS011;29046;54.184;18.680;2023-06-14T05:05:48;14.70;;;4.38;;
43457;SDS011;29046;54.184;18.680;2023-06-14T05:08:17;11.23;;;3.95;;
43457;SDS011;29046;54.184;18.680;2023-06-14T05:10:46;13.82;;;4.13;;
43457;SDS011;29046;54.184;18.680;2023-06-14T05:13:14;9.32;;;4.65;;
43457;SDS011;29046;54.184;18.680;2023-06-14T05:15:43;9.05;;;4.45;;
43457;SDS011;29046;54.184;18.680;2023-06-14T05:18:11;10.70;;;5.38;;
43457;SDS011;29046;54.184;18.680;2023-06-14T05:20:40;9.55;;;4.60;;
43457;SDS011;29046;54.184;18.680;2023-06-14T05:23:08;20.67;;;5.68;;
43457;SDS011;29046;54.184;18.680;2023-06-14T05:25:43;18.75;;;5.45;;
43457;SDS011;29046;54.184;18.680;2023-06-14T05:28:12;14.55;;;4.97;;
43457;SDS011;29046;54.184;18.680;2023-06-14T05:30:40;10.35;;;4.55;;
43457;SDS011;29046;54.184;18.680;2023-06-14T05:33:09;20.27;;;5.35;;
43457;SDS011;29046;54.184;18.680;2023-06-14T05:35:38;11.95;;;6.00;;
43457;SDS011;29046;54.184;18.680;2023-06-14T05:38:06;10.00;;;4.20;;
43457;SDS011;29046;54.184;18.680;2023-06-14T05:40:35;12.75;;;5.00;;
43457;SDS011;29046;54.184;18.680;2023-06-14T05:43:02;17.98;;;5.53;;
43457;SDS011;29046;54.184;18.680;2023-06-14T05:45:31;11.57;;;5.00;;
43457;SDS011;29046;54.184;18.680;2023-06-14T05:48:01;8.93;;;4.85;;
43457;SDS011;29046;54.184;18.680;2023-06-14T05:50:30;17.00;;;4.75;;
43457;SDS011;29046;54.184;18.680;2023-06-14T05:52:58;12.30;;;5.50;;
43457;SDS011;29046;54.184;18.680;2023-06-14T05:55:27;17.60;;;5.45;;
43457;SDS011;29046;54.184;18.680;2023-06-14T05:57:55;14.18;;;5.47;;
43457;SDS011;29046;54.184;18.680;2023-06-14T06:00:24;19.40;;;6.32;;
43457;SDS011;29046;54.184;18.680;2023-06-14T06:02:52;13.98;;;5.03;;
43457;SDS011;29046;54.184;18.680;2023-06-14T06:05:25;13.95;;;5.15;;
43457;SDS011;29046;54.184;18.680;2023-06-14T06:07:54;20.05;;;7.03;;
43457;SDS011;29046;54.184;18.680;2023-06-14T06:10:22;27.70;;;6.78;;
43457;SDS011;29046;54.184;18.680;2023-06-14T06:12:51;11.25;;;6.07;;
43457;SDS011;29046;54.184;18.680;2023-06-14T06:15:21;9.98;;;6.10;;
43457;SDS011;29046;54.184;18.680;2023-06-14T06:17:49;13.07;;;5.65;;
43457;SDS011;29046;54.184;18.680;2023-06-14T06:20:23;22.95;;;7.30;;
43457;SDS011;29046;54.184;18.680;2023-06-14T06:22:58;17.95;;;6.60;;
43457;SDS011;29046;54.184;18.680;2023-06-14T06:25:27;15.82;;;6.75;;
43457;SDS011;29046;54.184;18.680;2023-06-14T06:27:56;16.05;;;6.95;;
43457;SDS011;29046;54.184;18.680;2023-06-14T06:30:25;12.52;;;6.22;;
43457;SDS011;29046;54.184;18.680;2023-06-14T06:32:53;18.90;;;8.18;;
43457;SDS011;29046;54.184;18.680;2023-06-14T06:35:23;15.23;;;7.95;;
43457;SDS011;29046;54.184;18.680;2023-06-14T06:37:51;11.75;;;5.82;;
43457;SDS011;29046;54.184;18.680;2023-06-14T06:40:20;16.50;;;7.15;;
43457;SDS011;29046;54.184;18.680;2023-06-14T06:42:48;15.82;;;6.85;;
43457;SDS011;29046;54.184;18.680;2023-06-14T06:45:17;15.00;;;6.10;;
43457;SDS011;29046;54.184;18.680;2023-06-14T06:47:44;14.85;;;6.45;;
43457;SDS011;29046;54.184;18.680;2023-06-14T06:50:13;13.43;;;6.10;;
43457;SDS011;29046;54.184;18.680;2023-06-14T06:52:41;14.85;;;5.72;;
43457;SDS011;29046;54.184;18.680;2023-06-14T06:55:09;13.70;;;6.90;;
43457;SDS011;29046;54.184;18.680;2023-06-14T06:57:38;10.75;;;6.00;;
43457;SDS011;29046;54.184;18.680;2023-06-14T07:00:07;15.93;;;6.07;;
43457;SDS011;29046;54.184;18.680;2023-06-14T07:02:36;14.23;;;6.90;;
43457;SDS011;29046;54.184;18.680;2023-06-14T07:05:05;13.70;;;5.80;;
43457;SDS011;29046;54.184;18.680;2023-06-14T07:07:34;14.43;;;5.80;;
43457;SDS011;29046;54.184;18.680;2023-06-14T07:10:04;11.98;;;5.47;;
43457;SDS011;29046;54.184;18.680;2023-06-14T07:12:32;16.35;;;5.90;;
43457;SDS011;29046;54.184;18.680;2023-06-14T07:15:03;16.23;;;4.88;;
43457;SDS011;29046;54.184;18.680;2023-06-14T07:17:30;8.82;;;4.88;;
43457;SDS011;29046;54.184;18.680;2023-06-14T07:19:59;8.27;;;4.30;;
43457;SDS011;29046;54.184;18.680;2023-06-14T07:22:27;14.32;;;5.10;;
43457;SDS011;29046;54.184;18.680;2023-06-14T07:24:55;14.48;;;4.80;;
43457;SDS011;29046;54.184;18.680;2023-06-14T07:27:23;7.88;;;4.10;;
43457;SDS011;29046;54.184;18.680;2023-06-14T07:29:52;7.72;;;4.43;;
43457;SDS011;29046;54.184;18.680;2023-06-14T07:32:20;9.05;;;4.82;;
43457;SDS011;29046;54.184;18.680;2023-06-14T07:34:48;13.65;;;5.10;;
43457;SDS011;29046;54.184;18.680;2023-06-14T07:37:15;10.75;;;4.15;;
43457;SDS011;29046;54.184;18.680;2023-06-14T07:39:43;7.15;;;4.55;;
43457;SDS011;29046;54.184;18.680;2023-06-14T07:42:12;13.23;;;5.05;;
43457;SDS011;29046;54.184;18.680;2023-06-14T07:44:40;9.80;;;4.70;;
43457;SDS011;29046;54.184;18.680;2023-06-14T07:47:09;8.73;;;4.88;;
43457;SDS011;29046;54.184;18.680;2023-06-14T07:49:37;11.70;;;5.20;;
43457;SDS011;29046;54.184;18.680;2023-06-14T07:52:06;10.05;;;5.32;;
43457;SDS011;29046;54.184;18.680;2023-06-14T07:54:34;20.63;;;5.18;;
43457;SDS011;29046;54.184;18.680;2023-06-14T07:57:03;11.73;;;5.88;;
43457;SDS011;29046;54.184;18.680;2023-06-14T07:59:31;18.45;;;5.68;;
43457;SDS011;29046;54.184;18.680;2023-06-14T08:02:00;18.38;;;5.22;;
43457;SDS011;29046;54.184;18.680;2023-06-14T08:04:29;13.15;;;5.35;;
43457;SDS011;29046;54.184;18.680;2023-06-14T08:06:58;10.45;;;4.72;;
43457;SDS011;29046;54.184;18.680;2023-06-14T08:09:28;10.80;;;5.82;;
43457;SDS011;29046;54.184;18.680;2023-06-14T08:11:56;9.73;;;5.25;;
43457;SDS011;29046;54.184;18.680;2023-06-14T08:14:24;10.07;;;4.55;;
43457;SDS011;29046;54.184;18.680;2023-06-14T08:16:52;11.10;;;4.68;;
43457;SDS011;29046;54.184;18.680;2023-06-14T08:19:21;10.48;;;4.55;;
43457;SDS011;29046;54.184;18.680;2023-06-14T08:21:49;9.20;;;4.10;;
43457;SDS011;29046;54.184;18.680;2023-06-14T08:24:17;11.65;;;4.38;;
43457;SDS011;29046;54.184;18.680;2023-06-14T08:26:45;9.00;;;4.70;;
43457;SDS011;29046;54.184;18.680;2023-06-14T08:29:15;9.98;;;4.43;;
43457;SDS011;29046;54.184;18.680;2023-06-14T08:31:43;13.07;;;4.28;;
43457;SDS011;29046;54.184;18.680;2023-06-14T08:34:11;10.07;;;3.88;;
43457;SDS011;29046;54.184;18.680;2023-06-14T08:36:39;6.60;;;4.55;;
43457;SDS011;29046;54.184;18.680;2023-06-14T08:39:08;10.18;;;4.68;;
43457;SDS011;29046;54.184;18.680;2023-06-14T08:41:36;6.97;;;3.90;;
43457;SDS011;29046;54.184;18.680;2023-06-14T08:44:04;11.20;;;3.67;;
43457;SDS011;29046;54.184;18.680;2023-06-14T08:46:34;7.30;;;3.53;;
43457;SDS011;29046;54.184;18.680;2023-06-14T08:49:03;8.85;;;4.30;;
43457;SDS011;29046;54.184;18.680;2023-06-14T08:51:32;10.98;;;4.57;;
43457;SDS011;29046;54.184;18.680;2023-06-14T08:54:04;14.30;;;4.73;;
43457;SDS011;29046;54.184;18.680;2023-06-14T08:56:32;7.88;;;4.22;;
43457;SDS011;29046;54.184;18.680;2023-06-14T08:59:00;8.20;;;4.20;;
43457;SDS011;29046;54.184;18.680;2023-06-14T09:01:34;8.68;;;4.65;;
43457;SDS011;29046;54.184;18.680;2023-06-14T09:04:03;6.45;;;4.40;;
43457;SDS011;29046;54.184;18.680;2023-06-14T09:06:32;7.03;;;4.03;;
43457;SDS011;29046;54.184;18.680;2023-06-14T09:09:00;8.88;;;4.30;;
43457;SDS011;29046;54.184;18.680;2023-06-14T09:11:29;7.32;;;3.70;;
43457;SDS011;29046;54.184;18.680;2023-06-14T09:13:58;15.05;;;4.53;;
43457;SDS011;29046;54.184;18.680;2023-06-14T09:16:26;7.60;;;4.10;;
43457;SDS011;29046;54.184;18.680;2023-06-14T09:18:54;11.05;;;4.50;;
43457;SDS011;29046;54.184;18.680;2023-06-14T09:21:25;13.88;;;4.68;;
43457;SDS011;29046;54.184;18.680;2023-06-14T09:23:58;11.20;;;4.55;;
43457;SDS011;29046;54.184;18.680;2023-06-14T09:26:28;6.47;;;4.00;;
43457;SDS011;29046;54.184;18.680;2023-06-14T09:28:57;11.50;;;4.90;;
43457;SDS011;29046;54.184;18.680;2023-06-14T09:31:25;8.50;;;4.55;;
43457;SDS011;29046;54.184;18.680;2023-06-14T09:33:59;8.80;;;5.03;;
43457;SDS011;29046;54.184;18.680;2023-06-14T09:36:31;16.90;;;4.57;;
43457;SDS011;29046;54.184;18.680;2023-06-14T09:39:00;10.70;;;4.50;;
43457;SDS011;29046;54.184;18.680;2023-06-14T09:41:39;5.93;;;3.97;;
43457;SDS011;29046;54.184;18.680;2023-06-14T09:44:07;8.73;;;3.80;;
43457;SDS011;29046;54.184;18.680;2023-06-14T09:46:44;10.05;;;4.63;;
43457;SDS011;29046;54.184;18.680;2023-06-14T09:49:13;13.65;;;5.60;;
43457;SDS011;29046;54.184;18.680;2023-06-14T09:51:45;13.23;;;4.97;;
43457;SDS011;29046;54.184;18.680;2023-06-14T09:54:15;16.65;;;5.78;;
43457;SDS011;29046;54.184;18.680;2023-06-14T09:56:44;15.57;;;5.80;;
43457;SDS011;29046;54.184;18.680;2023-06-14T09:59:13;9.80;;;5.28;;
43457;SDS011;29046;54.184;18.680;2023-06-14T10:01:43;11.13;;;4.40;;
43457;SDS011;29046;54.184;18.680;2023-06-14T10:04:12;5.93;;;4.32;;
43457;SDS011;29046;54.184;18.680;2023-06-14T10:06:41;9.60;;;5.00;;
43457;SDS011;29046;54.184;18.680;2023-06-14T10:09:11;11.95;;;4.43;;
43457;SDS011;29046;54.184;18.680;2023-06-14T10:11:39;9.40;;;4.95;;
43457;SDS011;29046;54.184;18.680;2023-06-14T10:14:12;10.73;;;4.95;;
43457;SDS011;29046;54.184;18.680;2023-06-14T10:19:20;14.70;;;5.78;;
43457;SDS011;29046;54.184;18.680;2023-06-14T10:24:40;7.63;;;4.00;;
43457;SDS011;29046;54.184;18.680;2023-06-14T10:27:09;10.63;;;4.95;;
43457;SDS011;29046;54.184;18.680;2023-06-14T10:32:21;10.38;;;4.03;;
43457;SDS011;29046;54.184;18.680;2023-06-14T10:34:56;6.80;;;3.77;;
43457;SDS011;29046;54.184;18.680;2023-06-14T10:37:24;11.65;;;4.30;;
43457;SDS011;29046;54.184;18.680;2023-06-14T10:39:52;6.07;;;3.30;;
43457;SDS011;29046;54.184;18.680;2023-06-14T10:42:20;6.70;;;3.95;;
43457;SDS011;29046;54.184;18.680;2023-06-14T10:49:56;6.07;;;3.35;;
43457;SDS011;29046;54.184;18.680;2023-06-14T10:52:26;5.13;;;3.00;;
43457;SDS011;29046;54.184;18.680;2023-06-14T10:54:56;8.48;;;3.60;;
43457;SDS011;29046;54.184;18.680;2023-06-14T10:57:26;7.05;;;3.67;;
43457;SDS011;29046;54.184;18.680;2023-06-14T10:59:54;8.75;;;3.58;;
43457;SDS011;29046;54.184;18.680;2023-06-14T11:05:09;4.22;;;2.60;;
43457;SDS011;29046;54.184;18.680;2023-06-14T11:07:52;8.63;;;2.88;;
43457;SDS011;29046;54.184;18.680;2023-06-14T11:10:35;3.75;;;3.22;;
43457;SDS011;29046;54.184;18.680;2023-06-14T11:13:04;6.25;;;3.72;;
43457;SDS011;29046;54.184;18.680;2023-06-14T11:15:33;7.32;;;3.40;;
43457;SDS011;29046;54.184;18.680;2023-06-14T11:18:02;4.93;;;3.53;;
43457;SDS011;29046;54.184;18.680;2023-06-14T11:20:31;8.25;;;3.03;;
43457;SDS011;29046;54.184;18.680;2023-06-14T11:23:00;10.05;;;3.20;;
43457;SDS011;29046;54.184;18.680;2023-06-14T11:25:30;5.90;;;3.38;;
43457;SDS011;29046;54.184;18.680;2023-06-14T11:27:59;13.07;;;3.67;;
43457;SDS011;29046;54.184;18.680;2023-06-14T11:30:27;6.45;;;4.25;;
43457;SDS011;29046;54.184;18.680;2023-06-14T11:32:55;6.95;;;3.25;;
43457;SDS011;29046;54.184;18.680;2023-06-14T11:35:25;10.00;;;4.35;;
43457;SDS011;29046;54.184;18.680;2023-06-14T11:37:56;12.35;;;5.60;;
43457;SDS011;29046;54.184;18.680;2023-06-14T11:40:25;12.45;;;5.28;;
43457;SDS011;29046;54.184;18.680;2023-06-14T11:43:00;14.15;;;5.28;;
43457;SDS011;29046;54.184;18.680;2023-06-14T11:45:29;13.93;;;5.32;;
43457;SDS011;29046;54.184;18.680;2023-06-14T11:47:57;18.95;;;5.97;;
43457;SDS011;29046;54.184;18.680;2023-06-14T11:50:26;12.37;;;5.17;;
43457;SDS011;29046;54.184;18.680;2023-06-14T11:52:55;10.80;;;6.32;;
43457;SDS011;29046;54.184;18.680;2023-06-14T11:55:24;12.55;;;5.03;;
43457;SDS011;29046;54.184;18.680;2023-06-14T11:57:53;9.10;;;5.57;;
43457;SDS011;29046;54.184;18.680;2023-06-14T12:00:25;12.68;;;4.82;;
43457;SDS011;29046;54.184;18.680;2023-06-14T12:02:54;16.10;;;6.37;;
43457;SDS011;29046;54.184;18.680;2023-06-14T12:05:23;12.98;;;5.57;;
43457;SDS011;29046;54.184;18.680;2023-06-14T12:07:57;11.90;;;4.88;;
43457;SDS011;29046;54.184;18.680;2023-06-14T12:10:27;15.23;;;5.10;;
43457;SDS011;29046;54.184;18.680;2023-06-14T12:12:58;13.13;;;5.35;;
43457;SDS011;29046;54.184;18.680;2023-06-14T12:15:29;6.07;;;3.58;;
43457;SDS011;29046;54.184;18.680;2023-06-14T12:17:57;10.07;;;4.78;;
43457;SDS011;29046;54.184;18.680;2023-06-14T12:20:29;16.88;;;6.63;;
43457;SDS011;29046;54.184;18.680;2023-06-14T12:22:59;6.25;;;2.95;;
43457;SDS011;29046;54.184;18.680;2023-06-14T12:25:32;18.92;;;5.43;;
43457;SDS011;29046;54.184;18.680;2023-06-14T12:28:09;11.40;;;4.90;;
43457;SDS011;29046;54.184;18.680;2023-06-14T12:30:37;9.63;;;4.50;;
43457;SDS011;29046;54.184;18.680;2023-06-14T12:33:05;6.78;;;3.88;;
43457;SDS011;29046;54.184;18.680;2023-06-14T12:35:35;7.50;;;3.90;;
43457;SDS011;29046;54.184;18.680;2023-06-14T12:38:02;5.45;;;3.25;;
43457;SDS011;29046;54.184;18.680;2023-06-14T12:40:31;6.97;;;3.78;;
43457;SDS011;29046;54.184;18.680;2023-06-14T12:42:59;4.05;;;2.50;;
43457;SDS011;29046;54.184;18.680;2023-06-14T12:45:29;7.35;;;3.35;;
43457;SDS011;29046;54.184;18.680;2023-06-14T12:47:57;9.30;;;3.33;;
43457;SDS011;29046;54.184;18.680;2023-06-14T12:50:25;6.93;;;3.10;;
43457;SDS011;29046;54.184;18.680;2023-06-14T12:52:53;9.45;;;3.20;;
43457;SDS011;29046;54.184;18.680;2023-06-14T12:55:21;5.40;;;3.55;;
43457;SDS011;29046;54.184;18.680;2023-06-14T12:57:49;6.03;;;2.63;;
43457;SDS011;29046;54.184;18.680;2023-06-14T13:00:18;10.82;;;2.88;;
43457;SDS011;29046;54.184;18.680;2023-06-14T13:02:47;10.55;;;3.17;;
43457;SDS011;29046;54.184;18.680;2023-06-14T13:05:15;3.72;;;2.45;;
43457;SDS011;29046;54.184;18.680;2023-06-14T13:07:43;29.73;;;4.25;;
43457;SDS011;29046;54.184;18.680;2023-06-14T13:10:11;8.52;;;2.97;;
43457;SDS011;29046;54.184;18.680;2023-06-14T13:12:39;9.30;;;2.75;;
43457;SDS011;29046;54.184;18.680;2023-06-14T13:15:07;4.75;;;2.88;;
43457;SDS011;29046;54.184;18.680;2023-06-14T13:17:35;3.33;;;2.45;;
43457;SDS011;29046;54.184;18.680;2023-06-14T13:20:05;7.82;;;2.83;;
43457;SDS011;29046;54.184;18.680;2023-06-14T13:22:36;4.50;;;2.55;;
43457;SDS011;29046;54.184;18.680;2023-06-14T13:25:04;8.50;;;2.53;;
43457;SDS011;29046;54.184;18.680;2023-06-14T13:27:32;6.18;;;2.50;;
43457;SDS011;29046;54.184;18.680;2023-06-14T13:29:59;9.52;;;2.60;;
43457;SDS011;29046;54.184;18.680;2023-06-14T13:32:27;11.63;;;3.30;;
43457;SDS011;29046;54.184;18.680;2023-06-14T13:34:55;3.53;;;2.20;;
43457;SDS011;29046;54.184;18.680;2023-06-14T13:37:23;7.07;;;2.78;;
43457;SDS011;29046;54.184;18.680;2023-06-14T13:39:50;7.90;;;3.20;;
43457;SDS011;29046;54.184;18.680;2023-06-14T13:42:18;5.07;;;2.60;;
43457;SDS011;29046;54.184;18.680;2023-06-14T13:44:46;7.32;;;2.97;;
43457;SDS011;29046;54.184;18.680;2023-06-14T13:47:13;7.70;;;3.30;;
43457;SDS011;29046;54.184;18.680;2023-06-14T13:49:41;9.85;;;3.10;;
43457;SDS011;29046;54.184;18.680;2023-06-14T13:52:09;4.88;;;2.80;;
43457;SDS011;29046;54.184;18.680;2023-06-14T13:54:38;4.55;;;2.90;;
43457;SDS011;29046;54.184;18.680;2023-06-14T13:57:06;7.05;;;3.10;;
43457;SDS011;29046;54.184;18.680;2023-06-14T13:59:34;11.10;;;3.53;;
43457;SDS011;29046;54.184;18.680;2023-06-14T14:02:01;7.10;;;2.65;;
43457;SDS011;29046;54.184;18.680;2023-06-14T14:04:30;6.93;;;3.28;;
43457;SDS011;29046;54.184;18.680;2023-06-14T14:06:58;6.25;;;3.10;;
43457;SDS011;29046;54.184;18.680;2023-06-14T14:09:26;6.70;;;2.97;;
43457;SDS011;29046;54.184;18.680;2023-06-14T14:11:54;8.95;;;3.00;;
43457;SDS011;29046;54.184;18.680;2023-06-14T14:14:23;10.43;;;3.13;;
43457;SDS011;29046;54.184;18.680;2023-06-14T14:16:50;11.75;;;3.00;;
43457;SDS011;29046;54.184;18.680;2023-06-14T14:19:18;8.63;;;2.90;;
43457;SDS011;29046;54.184;18.680;2023-06-14T14:21:46;8.90;;;3.30;;
43457;SDS011;29046;54.184;18.680;2023-06-14T14:24:14;5.70;;;3.17;;
43457;SDS011;29046;54.184;18.680;2023-06-14T14:26:42;6.57;;;2.95;;
43457;SDS011;29046;54.184;18.680;2023-06-14T14:29:11;7.43;;;3.17;;
43457;SDS011;29046;54.184;18.680;2023-06-14T14:31:38;9.50;;;3.13;;
43457;SDS011;29046;54.184;18.680;2023-06-14T14:34:06;6.85;;;2.70;;
43457;SDS011;29046;54.184;18.680;2023-06-14T14:36:34;7.25;;;2.80;;
43457;SDS011;29046;54.184;18.680;2023-06-14T14:39:04;8.18;;;3.05;;
43457;SDS011;29046;54.184;18.680;2023-06-14T14:41:32;6.88;;;3.50;;
43457;SDS011;29046;54.184;18.680;2023-06-14T14:44:00;7.22;;;3.80;;
43457;SDS011;29046;54.184;18.680;2023-06-14T14:46:29;6.05;;;2.53;;
43457;SDS011;29046;54.184;18.680;2023-06-14T14:48:58;3.88;;;2.33;;
43457;SDS011;29046;54.184;18.680;2023-06-14T14:51:26;7.15;;;2.92;;
43457;SDS011;29046;54.184;18.680;2023-06-14T14:53:54;9.38;;;3.22;;
43457;SDS011;29046;54.184;18.680;2023-06-14T14:56:22;7.47;;;2.97;;
43457;SDS011;29046;54.184;18.680;2023-06-14T14:58:50;10.48;;;2.50;;
43457;SDS011;29046;54.184;18.680;2023-06-14T15:01:18;9.85;;;3.50;;
43457;SDS011;29046;54.184;18.680;2023-06-14T15:03:46;5.10;;;2.17;;